sensor_id;sensor_type;location;lat;lon;timestamp;P1;durP1;ratioP1;P2;durP2;ratioP2
72929;SDS011;61073;54.260;20.816;2022-11-21T00:00:59;62.17;;;24.33;;
72929;SDS011;61073;54.260;20.816;2022-11-21T00:03:27;57.38;;;23.33;;
72929;SDS011;61073;54.260;20.816;2022-11-21T00:05:54;66.10;;;23.95;;
72929;SDS011;61073;54.260;20.816;2022-11-21T00:08:21;67.00;;;24.50;;
72929;SDS011;61073;54.260;20.816;2022-11-21T00:10:48;58.42;;;23.65;;
72929;SDS011;61073;54.260;20.816;2022-11-21T00:13:19;58.47;;;23.42;;
72929;SDS011;61073;54.260;20.816;2022-11-21T00:15:46;60.67;;;23.88;;
72929;SDS011;61073;54.260;20.816;2022-11-21T00:18:13;55.83;;;21.80;;
72929;SDS011;61073;54.260;20.816;2022-11-21T00:20:41;58.90;;;21.60;;
72929;SDS011;61073;54.260;20.816;2022-11-21T00:23:08;53.95;;;20.98;;
72929;SDS011;61073;54.260;20.816;2022-11-21T00:25:36;58.03;;;22.77;;
72929;SDS011;61073;54.260;20.816;2022-11-21T00:28:03;62.17;;;24.08;;
72929;SDS011;61073;54.260;20.816;2022-11-21T00:30:30;64.32;;;25.10;;
72929;SDS011;61073;54.260;20.816;2022-11-21T00:32:58;54.80;;;22.17;;
72929;SDS011;61073;54.260;20.816;2022-11-21T00:35:25;60.13;;;22.85;;
72929;SDS011;61073;54.260;20.816;2022-11-21T00:37:52;60.08;;;22.50;;
72929;SDS011;61073;54.260;20.816;2022-11-21T00:40:20;59.22;;;23.27;;
72929;SDS011;61073;54.260;20.816;2022-11-21T00:42:47;69.10;;;23.83;;
72929;SDS011;61073;54.260;20.816;2022-11-21T00:45:14;62.38;;;22.77;;
72929;SDS011;61073;54.260;20.816;2022-11-21T00:47:45;66.63;;;23.55;;
72929;SDS011;61073;54.260;20.816;2022-11-21T00:50:12;56.88;;;23.45;;
72929;SDS011;61073;54.260;20.816;2022-11-21T00:52:40;60.55;;;22.27;;
72929;SDS011;61073;54.260;20.816;2022-11-21T00:57:34;55.80;;;20.67;;
72929;SDS011;61073;54.260;20.816;2022-11-21T01:02:30;51.30;;;20.98;;
72929;SDS011;61073;54.260;20.816;2022-11-21T01:04:57;54.10;;;20.20;;
72929;SDS011;61073;54.260;20.816;2022-11-21T01:09:51;58.38;;;22.20;;
72929;SDS011;61073;54.260;20.816;2022-11-21T01:14:45;62.33;;;22.88;;
72929;SDS011;61073;54.260;20.816;2022-11-21T01:19:39;61.22;;;21.83;;
72929;SDS011;61073;54.260;20.816;2022-11-21T01:24:33;53.95;;;20.88;;
72929;SDS011;61073;54.260;20.816;2022-11-21T01:29:27;56.08;;;20.90;;
72929;SDS011;61073;54.260;20.816;2022-11-21T04:43:14;241.40;;;55.53;;
72929;SDS011;61073;54.260;20.816;2022-11-21T04:48:10;137.13;;;38.25;;
72929;SDS011;61073;54.260;20.816;2022-11-21T04:50:37;129.45;;;38.72;;
72929;SDS011;61073;54.260;20.816;2022-11-21T04:55:31;114.68;;;35.40;;
72929;SDS011;61073;54.260;20.816;2022-11-21T04:57:59;86.93;;;27.63;;
72929;SDS011;61073;54.260;20.816;2022-11-21T05:00:26;75.68;;;27.48;;
72929;SDS011;61073;54.260;20.816;2022-11-21T05:02:53;84.78;;;27.38;;
72929;SDS011;61073;54.260;20.816;2022-11-21T05:05:20;90.43;;;28.65;;
72929;SDS011;61073;54.260;20.816;2022-11-21T05:10:15;86.07;;;28.08;;
72929;SDS011;61073;54.260;20.816;2022-11-21T05:12:42;88.18;;;29.70;;
72929;SDS011;61073;54.260;20.816;2022-11-21T05:15:28;85.88;;;27.88;;
72929;SDS011;61073;54.260;20.816;2022-11-21T05:20:23;89.72;;;26.40;;
72929;SDS011;61073;54.260;20.816;2022-11-21T05:22:50;91.07;;;29.65;;
72929;SDS011;61073;54.260;20.816;2022-11-21T05:25:18;93.40;;;29.95;;
72929;SDS011;61073;54.260;20.816;2022-11-21T05:27:45;90.20;;;29.50;;
72929;SDS011;61073;54.260;20.816;2022-11-21T05:32:39;69.85;;;25.63;;
72929;SDS011;61073;54.260;20.816;2022-11-21T05:37:33;78.15;;;26.48;;
72929;SDS011;61073;54.260;20.816;2022-11-21T05:40:00;72.28;;;27.05;;
72929;SDS011;61073;54.260;20.816;2022-11-21T05:45:13;100.43;;;32.33;;
72929;SDS011;61073;54.260;20.816;2022-11-21T05:50:07;98.15;;;33.13;;
72929;SDS011;61073;54.260;20.816;2022-11-21T05:52:34;99.95;;;30.02;;
72929;SDS011;61073;54.260;20.816;2022-11-21T05:59:55;71.13;;;24.67;;
72929;SDS011;61073;54.260;20.816;2022-11-21T06:12:29;92.10;;;27.80;;
72929;SDS011;61073;54.260;20.816;2022-11-21T06:17:23;64.60;;;24.75;;
72929;SDS011;61073;54.260;20.816;2022-11-21T06:22:17;64.70;;;25.63;;
72929;SDS011;61073;54.260;20.816;2022-11-21T06:32:05;62.50;;;23.30;;
72929;SDS011;61073;54.260;20.816;2022-11-21T06:34:33;67.35;;;24.75;;
72929;SDS011;61073;54.260;20.816;2022-11-21T06:37:00;64.75;;;23.98;;
72929;SDS011;61073;54.260;20.816;2022-11-21T06:41:54;60.05;;;23.05;;
72929;SDS011;61073;54.260;20.816;2022-11-21T06:46:48;62.80;;;22.73;;
72929;SDS011;61073;54.260;20.816;2022-11-21T06:49:16;64.10;;;24.42;;
72929;SDS011;61073;54.260;20.816;2022-11-21T06:56:40;64.72;;;22.95;;
72929;SDS011;61073;54.260;20.816;2022-11-21T07:01:35;49.90;;;21.58;;
72929;SDS011;61073;54.260;20.816;2022-11-21T07:08:57;57.53;;;20.25;;
72929;SDS011;61073;54.260;20.816;2022-11-21T07:11:44;62.70;;;21.95;;
72929;SDS011;61073;54.260;20.816;2022-11-21T07:16:38;74.47;;;27.38;;
72929;SDS011;61073;54.260;20.816;2022-11-21T07:21:32;60.25;;;20.70;;
72929;SDS011;61073;54.260;20.816;2022-11-21T07:28:54;58.25;;;22.25;;
72929;SDS011;61073;54.260;20.816;2022-11-21T07:33:48;57.50;;;22.13;;
72929;SDS011;61073;54.260;20.816;2022-11-21T07:41:10;65.22;;;24.13;;
72929;SDS011;61073;54.260;20.816;2022-11-21T07:46:04;58.13;;;22.65;;
72929;SDS011;61073;54.260;20.816;2022-11-21T07:48:31;57.67;;;22.90;;
72929;SDS011;61073;54.260;20.816;2022-11-21T07:53:25;60.38;;;22.30;;
72929;SDS011;61073;54.260;20.816;2022-11-21T08:08:07;56.83;;;19.33;;
72929;SDS011;61073;54.260;20.816;2022-11-21T08:13:02;61.60;;;20.75;;
72929;SDS011;61073;54.260;20.816;2022-11-21T08:17:56;58.10;;;19.92;;
72929;SDS011;61073;54.260;20.816;2022-11-21T08:22:50;53.35;;;20.15;;
72929;SDS011;61073;54.260;20.816;2022-11-21T08:25:17;62.00;;;22.90;;
72929;SDS011;61073;54.260;20.816;2022-11-21T08:32:38;72.57;;;22.80;;
72929;SDS011;61073;54.260;20.816;2022-11-21T08:37:32;67.10;;;24.30;;
72929;SDS011;61073;54.260;20.816;2022-11-21T08:39:59;56.67;;;22.88;;
72929;SDS011;61073;54.260;20.816;2022-11-21T08:42:27;73.68;;;24.08;;
72929;SDS011;61073;54.260;20.816;2022-11-21T08:47:21;61.15;;;20.83;;
72929;SDS011;61073;54.260;20.816;2022-11-21T08:49:48;67.50;;;24.52;;
72929;SDS011;61073;54.260;20.816;2022-11-21T08:52:15;70.18;;;25.95;;
72929;SDS011;61073;54.260;20.816;2022-11-21T08:54:43;83.45;;;27.45;;
72929;SDS011;61073;54.260;20.816;2022-11-21T08:57:10;115.88;;;33.60;;
72929;SDS011;61073;54.260;20.816;2022-11-21T08:59:39;83.68;;;26.67;;
72929;SDS011;61073;54.260;20.816;2022-11-21T09:02:08;62.30;;;23.83;;
72929;SDS011;61073;54.260;20.816;2022-11-21T09:04:36;64.35;;;23.38;;
72929;SDS011;61073;54.260;20.816;2022-11-21T09:07:03;64.22;;;26.60;;
72929;SDS011;61073;54.260;20.816;2022-11-21T09:09:30;61.08;;;24.02;;
72929;SDS011;61073;54.260;20.816;2022-11-21T09:11:59;59.13;;;24.75;;
72929;SDS011;61073;54.260;20.816;2022-11-21T09:14:27;62.17;;;24.60;;
72929;SDS011;61073;54.260;20.816;2022-11-21T09:19:58;67.05;;;23.90;;
72929;SDS011;61073;54.260;20.816;2022-11-21T09:22:25;65.32;;;26.00;;
72929;SDS011;61073;54.260;20.816;2022-11-21T09:24:53;55.72;;;22.50;;
72929;SDS011;61073;54.260;20.816;2022-11-21T09:27:20;69.97;;;26.45;;
72929;SDS011;61073;54.260;20.816;2022-11-21T09:32:17;63.25;;;21.27;;
72929;SDS011;61073;54.260;20.816;2022-11-21T09:34:44;64.30;;;24.83;;
72929;SDS011;61073;54.260;20.816;2022-11-21T09:37:11;67.13;;;24.65;;
72929;SDS011;61073;54.260;20.816;2022-11-21T09:39:38;66.10;;;24.75;;
72929;SDS011;61073;54.260;20.816;2022-11-21T09:49:53;70.65;;;25.58;;
72929;SDS011;61073;54.260;20.816;2022-11-21T09:52:21;55.42;;;23.30;;
72929;SDS011;61073;54.260;20.816;2022-11-21T09:54:53;61.38;;;24.65;;
72929;SDS011;61073;54.260;20.816;2022-11-21T09:57:23;62.13;;;23.73;;
72929;SDS011;61073;54.260;20.816;2022-11-21T09:59:53;96.18;;;31.90;;
72929;SDS011;61073;54.260;20.816;2022-11-21T10:02:22;91.35;;;33.22;;
72929;SDS011;61073;54.260;20.816;2022-11-21T10:04:49;69.57;;;28.17;;
72929;SDS011;61073;54.260;20.816;2022-11-21T10:07:20;72.82;;;25.23;;
72929;SDS011;61073;54.260;20.816;2022-11-21T10:15:29;67.43;;;25.38;;
72929;SDS011;61073;54.260;20.816;2022-11-21T10:25:37;65.63;;;25.98;;
72929;SDS011;61073;54.260;20.816;2022-11-21T10:28:39;70.03;;;25.50;;
72929;SDS011;61073;54.260;20.816;2022-11-21T10:30:58;69.55;;;27.60;;
72929;SDS011;61073;54.260;20.816;2022-11-21T10:33:29;69.60;;;26.88;;
72929;SDS011;61073;54.260;20.816;2022-11-21T10:35:58;75.13;;;28.67;;
72929;SDS011;61073;54.260;20.816;2022-11-21T10:38:27;73.82;;;30.00;;
72929;SDS011;61073;54.260;20.816;2022-11-21T10:46:13;70.45;;;27.77;;
72929;SDS011;61073;54.260;20.816;2022-11-21T10:48:40;81.72;;;29.63;;
72929;SDS011;61073;54.260;20.816;2022-11-21T10:53:34;72.32;;;27.30;;
72929;SDS011;61073;54.260;20.816;2022-11-21T10:56:20;73.28;;;28.33;;
72929;SDS011;61073;54.260;20.816;2022-11-21T10:58:48;78.40;;;28.38;;
72929;SDS011;61073;54.260;20.816;2022-11-21T11:06:46;68.93;;;25.92;;
72929;SDS011;61073;54.260;20.816;2022-11-21T11:09:24;74.68;;;29.02;;
72929;SDS011;61073;54.260;20.816;2022-11-21T11:11:56;72.20;;;27.10;;
72929;SDS011;61073;54.260;20.816;2022-11-21T11:14:40;68.05;;;26.80;;
72929;SDS011;61073;54.260;20.816;2022-11-21T11:19:34;72.78;;;27.33;;
72929;SDS011;61073;54.260;20.816;2022-11-21T11:22:10;73.88;;;28.10;;
72929;SDS011;61073;54.260;20.816;2022-11-21T11:24:52;72.30;;;31.38;;
72929;SDS011;61073;54.260;20.816;2022-11-21T11:27:26;69.00;;;27.17;;
72929;SDS011;61073;54.260;20.816;2022-11-21T11:29:53;83.40;;;31.02;;
72929;SDS011;61073;54.260;20.816;2022-11-21T11:32:20;67.78;;;27.60;;
72929;SDS011;61073;54.260;20.816;2022-11-21T11:37:40;69.97;;;27.08;;
72929;SDS011;61073;54.260;20.816;2022-11-21T11:46:04;75.30;;;30.23;;
72929;SDS011;61073;54.260;20.816;2022-11-21T11:48:56;74.35;;;29.63;;
72929;SDS011;61073;54.260;20.816;2022-11-21T11:54:17;66.63;;;27.30;;
72929;SDS011;61073;54.260;20.816;2022-11-21T11:56:45;62.03;;;26.48;;
72929;SDS011;61073;54.260;20.816;2022-11-21T12:04:17;72.10;;;27.35;;
72929;SDS011;61073;54.260;20.816;2022-11-21T12:06:50;72.30;;;29.30;;
72929;SDS011;61073;54.260;20.816;2022-11-21T12:09:47;68.32;;;27.17;;
72929;SDS011;61073;54.260;20.816;2022-11-21T12:23:24;76.38;;;29.23;;
72929;SDS011;61073;54.260;20.816;2022-11-21T12:29:04;71.65;;;27.85;;
72929;SDS011;61073;54.260;20.816;2022-11-21T12:37:12;76.60;;;27.80;;
72929;SDS011;61073;54.260;20.816;2022-11-21T12:39:44;73.63;;;28.23;;
72929;SDS011;61073;54.260;20.816;2022-11-21T12:53:42;80.70;;;27.25;;
72929;SDS011;61073;54.260;20.816;2022-11-21T12:56:31;66.05;;;27.63;;
72929;SDS011;61073;54.260;20.816;2022-11-21T12:59:04;72.97;;;27.45;;
72929;SDS011;61073;54.260;20.816;2022-11-21T13:04:07;69.45;;;27.83;;
72929;SDS011;61073;54.260;20.816;2022-11-21T13:06:36;64.57;;;27.25;;
72929;SDS011;61073;54.260;20.816;2022-11-21T13:09:07;79.72;;;29.92;;
72929;SDS011;61073;54.260;20.816;2022-11-21T13:12:12;69.35;;;26.63;;
72929;SDS011;61073;54.260;20.816;2022-11-21T13:14:31;61.58;;;25.45;;
72929;SDS011;61073;54.260;20.816;2022-11-21T13:25:01;70.78;;;27.13;;
72929;SDS011;61073;54.260;20.816;2022-11-21T13:27:34;75.85;;;29.52;;
72929;SDS011;61073;54.260;20.816;2022-11-21T13:40:49;71.97;;;26.73;;
72929;SDS011;61073;54.260;20.816;2022-11-21T13:43:29;80.50;;;27.45;;
72929;SDS011;61073;54.260;20.816;2022-11-21T13:45:58;66.82;;;27.45;;
72929;SDS011;61073;54.260;20.816;2022-11-21T13:48:31;91.60;;;29.92;;
72929;SDS011;61073;54.260;20.816;2022-11-21T13:56:35;86.63;;;30.88;;
72929;SDS011;61073;54.260;20.816;2022-11-21T14:02:42;166.63;;;46.97;;
72929;SDS011;61073;54.260;20.816;2022-11-21T14:09:56;224.23;;;73.35;;
72929;SDS011;61073;54.260;20.816;2022-11-21T14:15:16;187.52;;;67.20;;
72929;SDS011;61073;54.260;20.816;2022-11-21T14:23:11;310.90;;;100.03;;
72929;SDS011;61073;54.260;20.816;2022-11-21T14:25:42;322.75;;;107.10;;
72929;SDS011;61073;54.260;20.816;2022-11-21T14:28:14;226.80;;;73.93;;
72929;SDS011;61073;54.260;20.816;2022-11-21T14:30:42;230.02;;;77.13;;
72929;SDS011;61073;54.260;20.816;2022-11-21T14:33:19;164.02;;;58.15;;
72929;SDS011;61073;54.260;20.816;2022-11-21T14:38:14;110.60;;;41.22;;
72929;SDS011;61073;54.260;20.816;2022-11-21T14:40:42;93.32;;;36.17;;
72929;SDS011;61073;54.260;20.816;2022-11-21T14:45:55;128.18;;;46.03;;
72929;SDS011;61073;54.260;20.816;2022-11-21T14:48:26;144.45;;;47.33;;
72929;SDS011;61073;54.260;20.816;2022-11-21T14:50:54;123.50;;;42.97;;
72929;SDS011;61073;54.260;20.816;2022-11-21T14:53:21;122.82;;;38.78;;
72929;SDS011;61073;54.260;20.816;2022-11-21T14:55:49;96.65;;;33.10;;
72929;SDS011;61073;54.260;20.816;2022-11-21T14:58:23;100.70;;;31.48;;
72929;SDS011;61073;54.260;20.816;2022-11-21T15:03:36;97.78;;;34.67;;
72929;SDS011;61073;54.260;20.816;2022-11-21T15:06:03;102.50;;;33.80;;
72929;SDS011;61073;54.260;20.816;2022-11-21T15:08:32;105.68;;;33.35;;
72929;SDS011;61073;54.260;20.816;2022-11-21T15:11:20;90.20;;;32.67;;
72929;SDS011;61073;54.260;20.816;2022-11-21T15:13:49;112.53;;;34.80;;
72929;SDS011;61073;54.260;20.816;2022-11-21T15:16:39;108.60;;;36.88;;
72929;SDS011;61073;54.260;20.816;2022-11-21T15:19:07;115.70;;;40.63;;
72929;SDS011;61073;54.260;20.816;2022-11-21T15:21:34;90.22;;;33.25;;
72929;SDS011;61073;54.260;20.816;2022-11-21T15:26:29;75.15;;;26.60;;
72929;SDS011;61073;54.260;20.816;2022-11-21T15:28:57;78.55;;;26.35;;
72929;SDS011;61073;54.260;20.816;2022-11-21T15:31:25;80.55;;;31.13;;
72929;SDS011;61073;54.260;20.816;2022-11-21T15:36:37;95.38;;;34.00;;
72929;SDS011;61073;54.260;20.816;2022-11-21T15:41:35;164.23;;;57.03;;
72929;SDS011;61073;54.260;20.816;2022-11-21T15:48:57;251.18;;;80.00;;
72929;SDS011;61073;54.260;20.816;2022-11-21T15:51:26;292.42;;;93.45;;
72929;SDS011;61073;54.260;20.816;2022-11-21T15:54:10;360.27;;;115.65;;
72929;SDS011;61073;54.260;20.816;2022-11-21T15:56:37;305.33;;;102.20;;
72929;SDS011;61073;54.260;20.816;2022-11-21T15:59:06;321.95;;;99.68;;
72929;SDS011;61073;54.260;20.816;2022-11-21T16:01:34;294.42;;;96.60;;
72929;SDS011;61073;54.260;20.816;2022-11-21T16:04:02;275.55;;;88.85;;
72929;SDS011;61073;54.260;20.816;2022-11-21T16:06:29;271.27;;;90.90;;
72929;SDS011;61073;54.260;20.816;2022-11-21T16:08:56;335.63;;;105.63;;
72929;SDS011;61073;54.260;20.816;2022-11-21T16:11:27;380.08;;;120.93;;
72929;SDS011;61073;54.260;20.816;2022-11-21T16:13:56;392.38;;;137.95;;
72929;SDS011;61073;54.260;20.816;2022-11-21T16:16:31;388.30;;;133.32;;
72929;SDS011;61073;54.260;20.816;2022-11-21T16:18:59;400.83;;;138.55;;
72929;SDS011;61073;54.260;20.816;2022-11-21T16:21:27;326.52;;;111.60;;
72929;SDS011;61073;54.260;20.816;2022-11-21T16:23:54;319.38;;;100.22;;
72929;SDS011;61073;54.260;20.816;2022-11-21T16:26:21;362.80;;;104.50;;
72929;SDS011;61073;54.260;20.816;2022-11-21T16:28:56;315.85;;;89.95;;
72929;SDS011;61073;54.260;20.816;2022-11-21T16:31:25;392.63;;;108.65;;
72929;SDS011;61073;54.260;20.816;2022-11-21T16:33:53;425.05;;;113.93;;
72929;SDS011;61073;54.260;20.816;2022-11-21T16:36:21;450.65;;;125.18;;
72929;SDS011;61073;54.260;20.816;2022-11-21T16:38:48;438.52;;;141.27;;
72929;SDS011;61073;54.260;20.816;2022-11-21T16:41:15;424.33;;;145.75;;
72929;SDS011;61073;54.260;20.816;2022-11-21T16:43:45;357.42;;;104.47;;
72929;SDS011;61073;54.260;20.816;2022-11-21T16:46:13;477.30;;;127.53;;
72929;SDS011;61073;54.260;20.816;2022-11-21T16:48:40;474.98;;;130.82;;
72929;SDS011;61073;54.260;20.816;2022-11-21T16:51:25;407.38;;;122.20;;
72929;SDS011;61073;54.260;20.816;2022-11-21T16:53:53;350.17;;;111.25;;
72929;SDS011;61073;54.260;20.816;2022-11-21T16:56:20;349.92;;;117.38;;
72929;SDS011;61073;54.260;20.816;2022-11-21T16:58:47;277.08;;;93.90;;
72929;SDS011;61073;54.260;20.816;2022-11-21T17:01:15;257.00;;;83.40;;
72929;SDS011;61073;54.260;20.816;2022-11-21T17:03:45;320.98;;;100.13;;
72929;SDS011;61073;54.260;20.816;2022-11-21T17:06:13;264.23;;;87.93;;
72929;SDS011;61073;54.260;20.816;2022-11-21T17:08:40;256.75;;;88.90;;
72929;SDS011;61073;54.260;20.816;2022-11-21T17:13:58;304.13;;;99.53;;
72929;SDS011;61073;54.260;20.816;2022-11-21T17:16:25;321.05;;;100.90;;
72929;SDS011;61073;54.260;20.816;2022-11-21T17:21:19;335.05;;;100.55;;
72929;SDS011;61073;54.260;20.816;2022-11-21T17:23:46;352.10;;;105.07;;
72929;SDS011;61073;54.260;20.816;2022-11-21T17:26:14;261.88;;;77.22;;
72929;SDS011;61073;54.260;20.816;2022-11-21T17:28:41;260.08;;;78.78;;
72929;SDS011;61073;54.260;20.816;2022-11-21T17:31:11;323.73;;;106.97;;
72929;SDS011;61073;54.260;20.816;2022-11-21T17:33:38;350.95;;;120.25;;
72929;SDS011;61073;54.260;20.816;2022-11-21T17:36:06;238.93;;;77.95;;
72929;SDS011;61073;54.260;20.816;2022-11-21T17:38:36;200.32;;;68.70;;
72929;SDS011;61073;54.260;20.816;2022-11-21T17:41:05;191.95;;;60.55;;
72929;SDS011;61073;54.260;20.816;2022-11-21T17:43:33;219.40;;;71.38;;
72929;SDS011;61073;54.260;20.816;2022-11-21T17:46:01;192.63;;;57.78;;
72929;SDS011;61073;54.260;20.816;2022-11-21T17:48:33;177.52;;;59.33;;
72929;SDS011;61073;54.260;20.816;2022-11-21T17:51:04;192.73;;;62.00;;
72929;SDS011;61073;54.260;20.816;2022-11-21T17:53:33;178.40;;;56.72;;
72929;SDS011;61073;54.260;20.816;2022-11-21T17:56:02;182.02;;;58.53;;
72929;SDS011;61073;54.260;20.816;2022-11-21T17:58:29;215.05;;;69.18;;
72929;SDS011;61073;54.260;20.816;2022-11-21T18:00:58;196.43;;;68.72;;
72929;SDS011;61073;54.260;20.816;2022-11-21T18:03:25;179.85;;;59.20;;
72929;SDS011;61073;54.260;20.816;2022-11-21T18:06:00;209.63;;;66.35;;
72929;SDS011;61073;54.260;20.816;2022-11-21T18:08:30;256.90;;;72.93;;
72929;SDS011;61073;54.260;20.816;2022-11-21T18:10:59;186.98;;;56.22;;
72929;SDS011;61073;54.260;20.816;2022-11-21T18:13:26;168.40;;;53.92;;
72929;SDS011;61073;54.260;20.816;2022-11-21T18:15:53;148.70;;;47.25;;
72929;SDS011;61073;54.260;20.816;2022-11-21T18:18:20;162.10;;;52.42;;
72929;SDS011;61073;54.260;20.816;2022-11-21T18:20:48;184.60;;;58.10;;
72929;SDS011;61073;54.260;20.816;2022-11-21T18:23:16;251.75;;;76.72;;
72929;SDS011;61073;54.260;20.816;2022-11-21T18:25:43;228.90;;;75.60;;
72929;SDS011;61073;54.260;20.816;2022-11-21T18:28:12;279.25;;;90.88;;
72929;SDS011;61073;54.260;20.816;2022-11-21T18:33:05;265.30;;;79.85;;
72929;SDS011;61073;54.260;20.816;2022-11-21T18:35:32;222.75;;;71.18;;
72929;SDS011;61073;54.260;20.816;2022-11-21T18:38:01;192.38;;;60.28;;
72929;SDS011;61073;54.260;20.816;2022-11-21T18:40:28;161.00;;;56.25;;
72929;SDS011;61073;54.260;20.816;2022-11-21T18:45:22;171.82;;;55.22;;
72929;SDS011;61073;54.260;20.816;2022-11-21T18:47:49;169.77;;;54.10;;
72929;SDS011;61073;54.260;20.816;2022-11-21T18:52:44;157.75;;;50.60;;
72929;SDS011;61073;54.260;20.816;2022-11-21T18:55:11;129.32;;;46.60;;
72929;SDS011;61073;54.260;20.816;2022-11-21T18:57:39;123.22;;;46.10;;
72929;SDS011;61073;54.260;20.816;2022-11-21T19:00:07;118.88;;;42.20;;
72929;SDS011;61073;54.260;20.816;2022-11-21T19:02:34;120.53;;;44.25;;
72929;SDS011;61073;54.260;20.816;2022-11-21T19:07:28;112.28;;;40.13;;
72929;SDS011;61073;54.260;20.816;2022-11-21T19:09:55;95.10;;;35.35;;
72929;SDS011;61073;54.260;20.816;2022-11-21T19:12:30;106.47;;;39.20;;
72929;SDS011;61073;54.260;20.816;2022-11-21T19:15:00;110.78;;;42.00;;
72929;SDS011;61073;54.260;20.816;2022-11-21T19:19:54;85.13;;;33.47;;
72929;SDS011;61073;54.260;20.816;2022-11-21T19:22:21;75.97;;;27.00;;
72929;SDS011;61073;54.260;20.816;2022-11-21T19:24:48;103.15;;;32.45;;
72929;SDS011;61073;54.260;20.816;2022-11-21T19:27:15;83.38;;;30.23;;
72929;SDS011;61073;54.260;20.816;2022-11-21T19:29:42;97.82;;;35.42;;
72929;SDS011;61073;54.260;20.816;2022-11-21T19:34:36;83.05;;;27.50;;
72929;SDS011;61073;54.260;20.816;2022-11-21T19:39:30;93.40;;;32.13;;
72929;SDS011;61073;54.260;20.816;2022-11-21T19:41:58;95.07;;;31.23;;
72929;SDS011;61073;54.260;20.816;2022-11-21T19:44:26;170.70;;;51.17;;
72929;SDS011;61073;54.260;20.816;2022-11-21T19:46:53;187.23;;;55.28;;
72929;SDS011;61073;54.260;20.816;2022-11-21T19:51:48;118.10;;;43.45;;
72929;SDS011;61073;54.260;20.816;2022-11-21T19:56:42;170.52;;;57.30;;
72929;SDS011;61073;54.260;20.816;2022-11-21T19:59:10;117.88;;;42.42;;
72929;SDS011;61073;54.260;20.816;2022-11-21T20:01:38;95.40;;;34.15;;
72929;SDS011;61073;54.260;20.816;2022-11-21T20:04:06;82.45;;;28.45;;
72929;SDS011;61073;54.260;20.816;2022-11-21T20:06:35;106.75;;;36.25;;
72929;SDS011;61073;54.260;20.816;2022-11-21T20:09:06;63.35;;;23.63;;
72929;SDS011;61073;54.260;20.816;2022-11-21T20:11:33;58.80;;;21.70;;
72929;SDS011;61073;54.260;20.816;2022-11-21T20:14:00;84.82;;;28.33;;
72929;SDS011;61073;54.260;20.816;2022-11-21T20:16:32;118.78;;;40.53;;
72929;SDS011;61073;54.260;20.816;2022-11-21T20:19:00;124.82;;;41.92;;
72929;SDS011;61073;54.260;20.816;2022-11-21T20:21:27;100.03;;;34.00;;
72929;SDS011;61073;54.260;20.816;2022-11-21T20:23:55;86.00;;;30.80;;
72929;SDS011;61073;54.260;20.816;2022-11-21T20:26:22;132.73;;;42.58;;
72929;SDS011;61073;54.260;20.816;2022-11-21T20:28:49;136.35;;;43.72;;
72929;SDS011;61073;54.260;20.816;2022-11-21T20:31:19;126.93;;;38.78;;
72929;SDS011;61073;54.260;20.816;2022-11-21T20:33:48;131.40;;;41.88;;
72929;SDS011;61073;54.260;20.816;2022-11-21T20:36:22;100.10;;;32.92;;
72929;SDS011;61073;54.260;20.816;2022-11-21T20:38:53;95.10;;;34.13;;
72929;SDS011;61073;54.260;20.816;2022-11-21T20:41:22;89.18;;;29.08;;
72929;SDS011;61073;54.260;20.816;2022-11-21T20:43:53;106.10;;;38.30;;
72929;SDS011;61073;54.260;20.816;2022-11-21T20:46:40;111.28;;;35.92;;
72929;SDS011;61073;54.260;20.816;2022-11-21T20:49:08;86.40;;;31.13;;
72929;SDS011;61073;54.260;20.816;2022-11-21T20:51:35;84.15;;;28.80;;
72929;SDS011;61073;54.260;20.816;2022-11-21T20:54:22;62.03;;;22.10;;
72929;SDS011;61073;54.260;20.816;2022-11-21T20:59:16;46.17;;;16.27;;
72929;SDS011;61073;54.260;20.816;2022-11-21T21:01:43;56.90;;;19.02;;
72929;SDS011;61073;54.260;20.816;2022-11-21T21:06:37;46.92;;;17.23;;
72929;SDS011;61073;54.260;20.816;2022-11-21T21:09:05;41.45;;;16.65;;
72929;SDS011;61073;54.260;20.816;2022-11-21T21:11:32;43.53;;;17.20;;
72929;SDS011;61073;54.260;20.816;2022-11-21T21:14:15;46.88;;;18.30;;
72929;SDS011;61073;54.260;20.816;2022-11-21T21:19:09;39.33;;;14.60;;
72929;SDS011;61073;54.260;20.816;2022-11-21T21:24:06;47.13;;;17.63;;
72929;SDS011;61073;54.260;20.816;2022-11-21T21:26:35;48.28;;;17.52;;
72929;SDS011;61073;54.260;20.816;2022-11-21T21:29:06;47.55;;;17.23;;
72929;SDS011;61073;54.260;20.816;2022-11-21T21:34:00;45.83;;;16.63;;
72929;SDS011;61073;54.260;20.816;2022-11-21T21:38:57;39.38;;;16.00;;
72929;SDS011;61073;54.260;20.816;2022-11-21T21:41:25;49.30;;;17.55;;
72929;SDS011;61073;54.260;20.816;2022-11-21T21:43:53;43.88;;;17.92;;
72929;SDS011;61073;54.260;20.816;2022-11-21T21:46:21;54.58;;;18.67;;
72929;SDS011;61073;54.260;20.816;2022-11-21T21:48:50;58.30;;;20.38;;
72929;SDS011;61073;54.260;20.816;2022-11-21T21:51:18;57.60;;;19.67;;
72929;SDS011;61073;54.260;20.816;2022-11-21T21:53:46;49.90;;;19.00;;
72929;SDS011;61073;54.260;20.816;2022-11-21T21:56:14;59.70;;;20.70;;
72929;SDS011;61073;54.260;20.816;2022-11-21T21:58:42;62.65;;;22.52;;
72929;SDS011;61073;54.260;20.816;2022-11-21T22:03:40;53.55;;;19.90;;
72929;SDS011;61073;54.260;20.816;2022-11-21T22:06:08;54.28;;;19.95;;
72929;SDS011;61073;54.260;20.816;2022-11-21T22:08:36;56.42;;;20.02;;
72929;SDS011;61073;54.260;20.816;2022-11-21T22:11:05;58.13;;;22.02;;
72929;SDS011;61073;54.260;20.816;2022-11-21T22:13:33;65.70;;;24.48;;
72929;SDS011;61073;54.260;20.816;2022-11-21T22:16:01;61.22;;;23.73;;
72929;SDS011;61073;54.260;20.816;2022-11-21T22:18:28;69.47;;;24.20;;
72929;SDS011;61073;54.260;20.816;2022-11-21T22:20:55;78.57;;;24.17;;
72929;SDS011;61073;54.260;20.816;2022-11-21T22:23:22;67.90;;;23.10;;
72929;SDS011;61073;54.260;20.816;2022-11-21T22:25:53;67.15;;;22.08;;
72929;SDS011;61073;54.260;20.816;2022-11-21T22:28:20;66.53;;;23.45;;
72929;SDS011;61073;54.260;20.816;2022-11-21T22:30:54;77.38;;;23.02;;
72929;SDS011;61073;54.260;20.816;2022-11-21T22:33:21;63.33;;;23.38;;
72929;SDS011;61073;54.260;20.816;2022-11-21T22:35:48;92.78;;;29.75;;
72929;SDS011;61073;54.260;20.816;2022-11-21T22:40:44;106.82;;;35.45;;
72929;SDS011;61073;54.260;20.816;2022-11-21T22:43:11;112.80;;;37.53;;
72929;SDS011;61073;54.260;20.816;2022-11-21T22:45:38;120.45;;;40.13;;
72929;SDS011;61073;54.260;20.816;2022-11-21T22:50:32;88.57;;;30.85;;
72929;SDS011;61073;54.260;20.816;2022-11-21T22:52:59;108.15;;;34.85;;
72929;SDS011;61073;54.260;20.816;2022-11-21T22:57:53;120.07;;;37.70;;
72929;SDS011;61073;54.260;20.816;2022-11-21T23:00:21;103.38;;;33.92;;
72929;SDS011;61073;54.260;20.816;2022-11-21T23:05:15;136.75;;;41.15;;
72929;SDS011;61073;54.260;20.816;2022-11-21T23:07:42;153.10;;;44.45;;